Main page
METAR-TAF:

METAR-TAF

Airports :

Resia Pass, Italy

latitude: 46-50N, longitude: 010-30E, elevation: 1800 m

Current weather observation

The report was made 49 minutes ago, at 17:55 UTC
Wind 8 kt from the Southeast
Temperature -4°C
Humidity 93%
Pressure 999 hPa
Visibility: 8000 m
Scattered clouds at a height of 1200 ft
Broken clouds at a height of 2000 ft

METAR: LIVE 191755Z 14008KT 8000 SCT012 BKN020 M04/M05 Q0999 RMK OVC VIS MIN 8000

Time: 19:44 (18:44 UTC)


TAF: missing

Weather observations and forecasts of more than 4000 airports (METAR and TAF reports).

The available stations are represented by yellow and red dots on the map.

Hover mouse over dot to see the name of the station.

Then click to see weather observations and forecasts.

To change the map : click on the green buttons with a black cross to zoom in, on the green button with a dash to zoom out, or on the green arrows for adjacent maps.


METAR-TAF: